Time;durP1;ratioP1;P1;durP2;ratioP2;P2;SDS_P1;SDS_P2;PMS_P1;PMS_P2;Temp;Humidity;BMP_temperature;BMP_pressure;BME280_temperature;BME280_humidity;BME280_pressure;Samples;Min_cycle;Max_cycle;Signal;HPM_P1;HPM_P2
2022/02/09 00:03:52;;;;;;;6.53;5.20;;;;;;;7.13;82.21;101858.47;5026230;28;20394;-23
2022/02/09 00:09:03;;;;;;;6.10;5.28;;;;;;;7.11;82.08;101853.19;5029648;28;20040;-25
2022/02/09 00:11:36;;;;;;;8.13;5.47;;;;;;;7.11;82.21;101854.94;5027434;28;20029;-23
2022/02/09 00:14:12;;;;;;;7.15;6.22;;;;;;;7.10;82.25;101861.03;5027318;28;20030;-23
2022/02/09 00:17:06;;;;;;;9.32;5.53;;;;;;;7.12;82.63;101851.44;5029250;28;20025;-26
2022/02/09 00:19:31;;;;;;;8.30;5.65;;;;;;;7.11;82.11;101861.06;5027990;28;20159;-23
2022/02/09 00:38:12;;;;;;;6.25;5.65;;;;;;;7.04;82.48;101836.41;5028767;28;20017;-23
2022/02/09 00:59:48;;;;;;;8.00;6.38;;;;;;;6.98;82.49;101854.63;5026015;28;20072;-23
2022/02/09 01:40:59;;;;;;;7.03;6.03;;;;;;;7.00;82.91;101838.94;5027336;28;20056;-23
2022/02/09 01:56:24;;;;;;;7.05;5.68;;;;;;;7.00;83.23;101831.94;5030717;28;20424;-23
2022/02/09 01:58:50;;;;;;;7.93;5.88;;;;;;;7.01;83.16;101827.59;5030588;28;20044;-24
2022/02/09 02:01:16;;;;;;;8.23;6.38;;;;;;;7.01;83.06;101833.69;5030932;28;20024;-23
2022/02/09 02:03:44;;;;;;;8.02;7.00;;;;;;;6.99;83.04;101830.16;5031905;28;20144;-23
2022/02/09 02:06:10;;;;;;;7.28;6.40;;;;;;;7.00;82.71;101821.44;5031111;28;20025;-25
2022/02/09 02:08:36;;;;;;;7.95;6.30;;;;;;;7.01;82.84;101828.44;5030580;28;20029;-23
2022/02/09 02:11:22;;;;;;;7.85;6.82;;;;;;;7.02;83.09;101826.72;5029836;28;20049;-23
2022/02/09 02:16:29;;;;;;;8.65;6.97;;;;;;;7.02;83.09;101822.38;5031222;28;20405;-24
2022/02/09 02:19:28;;;;;;;10.05;7.05;;;;;;;7.03;83.06;101833.75;5030814;28;20018;-24
2022/02/09 02:27:08;;;;;;;7.65;6.85;;;;;;;7.03;83.15;101820.63;5029487;28;20036;-27
2022/02/09 02:59:46;;;;;;;8.27;7.38;;;;;;;7.12;83.62;101820.84;5027442;28;20068;-24
2022/02/09 03:10:50;;;;;;;7.50;6.32;;;;;;;7.12;83.21;101826.09;5027338;28;20040;-23
2022/02/09 03:13:16;;;;;;;7.65;6.80;;;;;;;7.13;83.57;101829.59;5027205;28;20048;-23
2022/02/09 03:15:59;;;;;;;7.90;6.05;;;;;;;7.13;83.10;101826.97;5024830;28;20057;-23
2022/02/09 03:21:07;;;;;;;6.32;5.70;;;;;;;7.11;83.39;101819.09;5013866;28;20477;-23
2022/02/09 03:43:18;;;;;;;6.85;6.15;;;;;;;7.16;83.14;101812.22;5026931;28;20116;-23
2022/02/09 03:58:52;;;;;;;8.00;6.43;;;;;;;7.18;83.27;101828.00;5021264;28;20041;-24
2022/02/09 04:01:19;;;;;;;8.25;6.50;;;;;;;7.18;83.74;101820.13;5027372;28;20038;-23
2022/02/09 04:03:45;;;;;;;9.75;7.18;;;;;;;7.20;83.72;101815.78;5027524;28;20505;-23
2022/02/09 04:06:11;;;;;;;7.15;6.45;;;;;;;7.19;83.75;101806.13;5028290;28;20026;-23
2022/02/09 04:08:44;;;;;;;7.53;6.60;;;;;;;7.18;83.94;101804.38;5029545;28;20032;-23
2022/02/09 04:11:18;;;;;;;6.93;6.15;;;;;;;7.21;83.32;101809.69;5025089;28;20025;-23
2022/02/09 04:13:54;;;;;;;8.10;6.15;;;;;;;7.22;83.64;101803.59;5028656;28;20030;-23
2022/02/09 04:19:49;;;;;;;9.85;6.57;;;;;;;7.22;83.68;101795.72;5029058;28;20564;-23
2022/02/09 04:54:16;;;;;;;6.55;5.88;;;;;;;7.25;83.25;101790.53;5023245;28;20488;-23
2022/02/09 04:56:27;;;;;;;9.05;6.30;;;;;;;7.25;83.75;101790.53;5023895;28;20455;-23
2022/02/09 04:59:10;;;;;;;7.65;6.30;;;;;;;7.24;83.60;101791.38;5026884;28;20056;-25
2022/02/09 05:18:18;;;;;;;7.45;6.43;;;;;;;7.24;83.62;101774.75;5027911;28;20206;-23
2022/02/09 05:23:47;;;;;;;7.13;6.20;;;;;;;7.21;83.56;101772.97;5028045;28;20102;-23
2022/02/09 05:28:41;;;;;;;7.45;6.00;;;;;;;7.18;83.37;101765.00;5029698;28;20053;-24
2022/02/09 05:31:08;;;;;;;6.55;5.85;;;;;;;7.18;83.18;101755.38;5032044;28;20112;-23
2022/02/09 05:33:34;;;;;;;7.88;7.05;;;;;;;7.21;83.25;101758.94;5032439;28;20025;-24
2022/02/09 05:35:59;;;;;;;7.28;5.75;;;;;;;7.18;83.22;101757.16;5032243;28;20036;-23
2022/02/09 05:38:25;;;;;;;8.10;6.05;;;;;;;7.18;83.54;101757.16;5031672;28;20026;-24
2022/02/09 05:40:50;;;;;;;7.70;6.68;;;;;;;7.13;83.46;101753.50;5031053;28;20029;-23
2022/02/09 05:43:16;;;;;;;5.80;5.15;;;;;;;7.18;83.44;101760.63;5032302;28;20071;-23
2022/02/09 05:51:16;;;;;;;6.53;5.78;;;;;;;7.16;83.61;101754.47;5031410;28;20564;-23
2022/02/09 05:57:12;;;;;;;5.85;5.25;;;;;;;7.14;83.16;101744.81;5032435;28;20025;-23
2022/02/09 06:01:32;;;;;;;7.35;5.47;;;;;;;7.12;83.03;101741.25;5030849;28;20021;-23
2022/02/09 06:03:58;;;;;;;7.30;6.00;;;;;;;7.10;83.30;101742.97;5030543;28;20108;-23
2022/02/09 06:06:23;;;;;;;9.32;6.55;;;;;;;7.10;83.12;101732.47;5030882;28;20513;-23
2022/02/09 06:08:49;;;;;;;6.90;5.82;;;;;;;7.10;83.30;101738.59;5031577;28;20856;-25
2022/02/09 06:11:28;;;;;;;7.78;6.22;;;;;;;7.10;83.02;101732.47;5029756;28;20021;-23
2022/02/09 06:21:48;;;;;;;7.32;6.00;;;;;;;7.04;82.55;101720.97;5030377;28;20460;-23
2022/02/09 06:24:14;;;;;;;6.20;5.60;;;;;;;7.08;82.58;101723.66;5030986;28;20021;-23
2022/02/09 06:26:40;;;;;;;7.70;5.80;;;;;;;7.09;82.73;101735.94;5030880;28;20068;-23
2022/02/09 06:29:05;;;;;;;7.28;5.40;;;;;;;7.06;82.54;101727.16;5031509;28;20041;-23
2022/02/09 06:31:35;;;;;;;5.90;5.30;;;;;;;7.09;82.75;101735.94;5033572;28;20029;-23
2022/02/09 06:34:01;;;;;;;7.00;5.63;;;;;;;7.08;82.67;101735.06;5031064;28;20453;-24
2022/02/09 06:36:27;;;;;;;6.47;5.50;;;;;;;7.09;82.53;101741.19;5031659;28;20059;-27
2022/02/09 06:38:52;;;;;;;6.25;5.65;;;;;;;7.08;82.66;101742.94;5031084;28;20095;-23
2022/02/09 06:41:18;;;;;;;7.65;5.38;;;;;;;7.09;82.40;101741.19;5031206;28;20032;-23
2022/02/09 06:43:44;;;;;;;6.07;5.18;;;;;;;7.06;82.23;101742.91;5030930;28;20442;-23
2022/02/09 06:46:09;;;;;;;6.07;5.45;;;;;;;7.08;82.31;101749.91;5031557;28;20025;-23
2022/02/09 06:48:35;;;;;;;5.63;4.85;;;;;;;7.08;82.15;101739.41;5031141;28;20075;-24
2022/02/09 06:51:09;;;;;;;7.03;5.75;;;;;;;7.08;82.41;101747.28;5030809;28;20033;-23
2022/02/09 06:53:46;;;;;;;5.70;5.13;;;;;;;7.09;82.17;101751.66;5030762;28;20405;-23
2022/02/09 06:56:22;;;;;;;6.90;5.25;;;;;;;7.09;82.27;101749.03;5031592;28;20036;-23
2022/02/09 06:58:59;;;;;;;6.22;5.20;;;;;;;7.09;82.12;101749.03;5030527;28;20024;-24
2022/02/09 07:01:24;;;;;;;6.35;5.75;;;;;;;7.08;81.96;101745.56;5026125;28;20031;-23
2022/02/09 07:03:50;;;;;;;6.43;5.35;;;;;;;7.08;82.28;101744.66;5031097;28;20021;-23
2022/02/09 07:06:15;;;;;;;6.45;5.45;;;;;;;7.08;82.13;101740.31;5030953;28;20029;-23
2022/02/09 07:08:41;;;;;;;6.18;5.32;;;;;;;7.06;82.07;101732.41;5031114;28;20448;-23
2022/02/09 07:11:09;;;;;;;6.43;4.90;;;;;;;7.08;82.41;101735.06;5027804;28;20049;-24
2022/02/09 07:13:35;;;;;;;7.10;4.88;;;;;;;7.08;82.43;101736.78;5030048;28;20174;-23
2022/02/09 07:16:04;;;;;;;7.45;5.53;;;;;;;7.08;82.18;101742.94;5030670;28;20025;-23
2022/02/09 07:18:30;;;;;;;6.18;5.22;;;;;;;7.09;81.95;101747.31;5030581;28;20057;-23
2022/02/09 07:21:02;;;;;;;7.10;5.28;;;;;;;7.08;82.14;101742.03;5031238;28;20053;-23
2022/02/09 07:28:37;;;;;;;5.95;4.53;;;;;;;7.07;81.99;101743.75;5029654;28;20049;-23
2022/02/09 07:31:07;;;;;;;5.80;5.20;;;;;;;7.08;82.29;101748.19;5028155;28;20055;-23
2022/02/09 07:33:33;;;;;;;6.95;5.10;;;;;;;7.09;82.12;101749.03;5030368;28;20041;-24
2022/02/09 07:35:59;;;;;;;6.32;4.90;;;;;;;7.08;81.86;101753.44;5030183;28;20021;-23
2022/02/09 07:38:25;;;;;;;5.32;4.82;;;;;;;7.09;82.17;101741.19;5030026;28;20249;-23
2022/02/09 07:40:56;;;;;;;5.53;4.97;;;;;;;7.10;82.10;101742.97;5030256;28;20033;-23
2022/02/09 07:43:26;;;;;;;6.40;4.68;;;;;;;7.09;82.08;101743.81;5027444;28;20022;-23
2022/02/09 07:51:27;;;;;;;5.30;4.80;;;;;;;7.08;82.36;101740.31;5029242;28;20025;-23
2022/02/09 07:54:02;;;;;;;7.18;5.90;;;;;;;7.08;82.27;101737.69;5029717;28;20040;-23
2022/02/09 07:56:33;;;;;;;5.30;4.80;;;;;;;7.08;82.24;101737.69;5030563;28;20043;-24
2022/02/09 07:58:59;;;;;;;6.45;5.75;;;;;;;7.11;82.01;101739.50;5028536;28;20022;-23
2022/02/09 08:01:25;;;;;;;6.30;4.80;;;;;;;7.10;82.28;101732.47;5030189;28;20025;-24
2022/02/09 08:03:51;;;;;;;9.48;5.85;;;;;;;7.10;82.23;101733.34;5029350;28;20501;-23
2022/02/09 08:06:18;;;;;;;5.70;5.10;;;;;;;7.10;82.03;101741.22;5029599;28;20029;-23
2022/02/09 08:08:45;;;;;;;5.18;4.68;;;;;;;7.11;82.38;101739.50;5029975;28;20033;-23
2022/02/09 08:32:40;;;;;;;5.75;5.15;;;;;;;7.16;82.35;101716.84;5026689;28;20416;-23
2022/02/09 08:35:06;;;;;;;5.20;4.70;;;;;;;7.17;82.64;101721.28;5026579;28;20053;-23
2022/02/09 08:37:32;;;;;;;5.47;4.97;;;;;;;7.17;82.27;101716.88;5027090;28;20033;-24
2022/02/09 08:39:58;;;;;;;5.53;4.72;;;;;;;7.17;82.43;101719.50;5029114;28;20025;-23
2022/02/09 08:42:24;;;;;;;6.00;4.95;;;;;;;7.18;82.23;101715.16;5029048;28;20048;-23
2022/02/09 08:44:50;;;;;;;6.00;5.43;;;;;;;7.19;82.24;101716.94;5029449;28;20408;-24
2022/02/09 08:47:16;;;;;;;5.28;4.78;;;;;;;7.19;82.58;101709.06;5025692;28;20029;-23
2022/02/09 08:49:41;;;;;;;5.15;4.60;;;;;;;7.20;82.52;101713.44;5028436;28;20039;-24
2022/02/09 08:52:07;;;;;;;5.38;4.68;;;;;;;7.21;82.15;101709.09;5027636;28;20409;-23
2022/02/09 08:54:33;;;;;;;5.68;5.07;;;;;;;7.23;82.33;101717.91;5026685;28;20029;-23
2022/02/09 08:57:02;;;;;;;5.05;4.55;;;;;;;7.23;82.77;101702.16;5027113;28;20508;-23
2022/02/09 08:59:29;;;;;;;7.45;5.07;;;;;;;7.23;82.79;101716.13;5029065;28;20410;-24
2022/02/09 09:02:00;;;;;;;5.63;4.57;;;;;;;7.24;83.25;101704.78;5028543;28;20108;-23
2022/02/09 09:04:32;;;;;;;7.97;5.43;;;;;;;7.26;83.10;101710.06;5028797;28;20115;-23
2022/02/09 09:06:59;;;;;;;5.53;4.78;;;;;;;7.27;83.25;101703.97;5024708;28;20128;-24
2022/02/09 09:14:55;;;;;;;6.30;5.18;;;;;;;7.28;82.68;101706.66;5028507;28;20029;-23
2022/02/09 10:33:15;;;;;;;5.10;4.35;;;;;;;7.79;82.12;101683.13;5029233;28;20079;-23
2022/02/09 10:35:48;;;;;;;5.28;4.75;;;;;;;7.83;82.35;101690.22;5030678;28;20136;-23
2022/02/09 10:38:27;;;;;;;4.90;4.13;;;;;;;7.87;82.46;101679.75;5030814;28;20040;-22
2022/02/09 10:40:55;;;;;;;6.15;4.68;;;;;;;7.87;82.41;101679.75;5028765;28;20029;-21
2022/02/09 10:43:29;;;;;;;4.65;4.10;;;;;;;7.94;82.88;101684.28;5031365;28;20481;-24
2022/02/09 10:46:20;;;;;;;5.75;5.05;;;;;;;7.96;82.59;101683.44;5032166;28;20112;-21
2022/02/09 10:48:59;;;;;;;4.87;4.37;;;;;;;7.97;82.30;101676.44;5030974;28;20041;-21
2022/02/09 10:52:06;;;;;;;8.20;4.57;;;;;;;8.00;82.01;101676.47;5030918;28;20297;-22
2022/02/09 10:54:19;;;;;;;5.75;5.25;;;;;;;8.05;82.84;101661.72;5030486;28;20033;-22
2022/02/09 10:56:46;;;;;;;6.75;4.55;;;;;;;8.06;82.66;101668.72;5030502;28;20021;-21
2022/02/09 10:59:14;;;;;;;6.38;4.63;;;;;;;8.09;81.92;101666.16;5031411;28;20112;-21
2022/02/09 11:01:40;;;;;;;7.13;5.22;;;;;;;8.14;82.26;101667.97;5029699;28;20022;-21
2022/02/09 11:04:07;;;;;;;5.78;5.07;;;;;;;8.15;82.33;101665.38;5031097;28;20021;-21
2022/02/09 11:06:35;;;;;;;6.20;4.43;;;;;;;8.17;82.53;101658.38;5030671;28;20029;-23
2022/02/09 11:09:06;;;;;;;5.13;4.57;;;;;;;8.18;81.80;101659.28;5030933;28;20017;-21
2022/02/09 11:11:35;;;;;;;5.60;4.97;;;;;;;8.24;82.50;101667.28;5027619;28;20067;-21
2022/02/09 11:14:01;;;;;;;6.43;4.93;;;;;;;8.27;81.41;101659.41;5030529;28;20120;-21
2022/02/09 11:16:27;;;;;;;5.00;4.57;;;;;;;8.31;82.56;101660.38;5028377;28;20096;-21
2022/02/09 11:18:55;;;;;;;6.72;4.40;;;;;;;8.32;81.92;101652.50;5030994;28;20485;-21
2022/02/09 11:21:33;;;;;;;4.63;4.13;;;;;;;8.36;81.94;101652.56;5030023;28;20071;-25
2022/02/09 11:24:09;;;;;;;4.40;4.00;;;;;;;8.37;81.86;101643.81;5030365;28;20017;-21
2022/02/09 11:29:23;;;;;;;4.63;4.22;;;;;;;8.42;81.80;101637.75;5028420;28;20076;-21
2022/02/09 11:32:29;;;;;;;7.00;4.68;;;;;;;8.45;81.21;101639.56;5027470;28;20044;-21
2022/02/09 11:35:03;;;;;;;4.80;4.28;;;;;;;8.47;81.36;101657.13;5024326;28;20170;-21
2022/02/09 11:40:33;;;;;;;4.75;4.03;;;;;;;8.52;81.13;101640.53;5029247;28;20033;-22
2022/02/09 11:43:37;;;;;;;6.78;4.10;;;;;;;8.52;81.00;101638.78;5030347;28;20493;-23
2022/02/09 12:16:34;;;;;;;5.82;4.60;;;;;;;8.70;80.24;101632.94;5027922;28;20416;-21
2022/02/09 12:19:05;;;;;;;5.00;4.28;;;;;;;8.72;79.99;101635.59;5029419;28;20021;-21
2022/02/09 12:21:56;;;;;;;6.38;4.90;;;;;;;8.72;79.57;101632.97;5028065;28;20083;-21
2022/02/09 12:24:32;;;;;;;4.63;4.07;;;;;;;8.72;79.50;101628.59;5027648;28;20021;-21
2022/02/09 12:27:14;;;;;;;5.55;4.70;;;;;;;8.74;79.58;101633.88;5029248;28;20025;-21
2022/02/09 12:29:41;;;;;;;5.40;4.75;;;;;;;8.76;79.89;101631.25;5029540;28;20033;-21
2022/02/09 12:32:16;;;;;;;5.18;4.68;;;;;;;8.75;79.24;101616.34;5029147;28;20025;-25
2022/02/09 12:34:44;;;;;;;5.18;4.65;;;;;;;8.75;79.43;101619.84;5028946;28;20061;-21
2022/02/09 12:37:14;;;;;;;6.32;4.78;;;;;;;8.79;79.58;101615.50;5028722;28;20025;-21
2022/02/09 12:39:53;;;;;;;5.38;4.70;;;;;;;8.79;79.39;101605.00;5029151;28;20124;-21
2022/02/09 12:42:19;;;;;;;5.57;4.60;;;;;;;8.79;79.67;101605.88;5028581;28;20029;-21
2022/02/09 12:45:01;;;;;;;5.40;4.25;;;;;;;8.79;79.14;101616.41;5029200;28;20013;-21
2022/02/09 12:47:39;;;;;;;6.68;5.00;;;;;;;8.79;79.16;101612.88;5029291;28;20454;-21
2022/02/09 12:50:10;;;;;;;5.60;4.57;;;;;;;8.80;78.91;101604.16;5026885;28;20021;-24
2022/02/09 12:52:38;;;;;;;5.70;4.95;;;;;;;8.81;79.39;101614.66;5028559;28;20048;-22
2022/02/09 12:55:20;;;;;;;5.32;4.82;;;;;;;8.81;78.68;101608.53;5028208;28;20030;-21
2022/02/09 12:57:52;;;;;;;6.25;5.15;;;;;;;8.81;78.47;101613.78;5027250;28;20032;-21
2022/02/09 13:00:38;;;;;;;6.55;4.68;;;;;;;8.84;79.19;101604.19;5027074;28;20092;-21
2022/02/09 13:03:07;;;;;;;5.43;4.93;;;;;;;8.82;78.43;101607.66;5027936;28;20115;-21
2022/02/09 13:05:40;;;;;;;5.80;5.00;;;;;;;8.83;78.95;101605.06;5028616;28;20415;-24
2022/02/09 13:08:06;;;;;;;5.55;4.22;;;;;;;8.84;79.31;101596.28;5027542;28;20546;-21
2022/02/09 13:10:35;;;;;;;4.68;4.28;;;;;;;8.82;78.79;101600.66;5028512;28;20021;-22
2022/02/09 13:13:07;;;;;;;6.07;4.65;;;;;;;8.84;78.65;101598.91;5027858;28;20020;-21
2022/02/09 13:15:40;;;;;;;5.38;4.85;;;;;;;8.85;78.89;101600.72;5027641;28;20026;-21
2022/02/09 13:21:34;;;;;;;6.43;5.32;;;;;;;8.87;79.57;101594.56;5027882;28;20041;-22
2022/02/09 13:51:41;;;;;;;6.38;4.60;;;;;;;8.87;78.64;101581.44;5028158;28;20022;-21
2022/02/09 14:03:37;;;;;;;4.78;3.95;;;;;;;8.87;78.20;101598.06;5031905;28;20049;-21
2022/02/09 14:11:30;;;;;;;5.50;4.28;;;;;;;8.85;78.19;101595.44;5029021;28;20059;-23
2022/02/09 14:35:10;;;;;;;6.20;4.20;;;;;;;8.88;78.47;101593.72;5031703;28;20025;-22
2022/02/09 14:56:41;;;;;;;5.15;4.68;;;;;;;8.86;78.87;101601.56;5031391;28;20482;-21
2022/02/09 14:59:09;;;;;;;5.72;4.53;;;;;;;8.84;78.72;101598.91;5029741;28;20389;-21
2022/02/09 15:01:50;;;;;;;5.35;4.70;;;;;;;8.87;78.95;101597.22;5026774;28;20083;-21
2022/02/09 15:05:01;;;;;;;5.22;4.47;;;;;;;8.88;79.39;101601.59;5027076;28;20461;-21
2022/02/09 15:07:36;;;;;;;9.40;4.50;;;;;;;8.88;79.02;101598.97;5027959;28;20045;-21
2022/02/09 15:10:08;;;;;;;5.10;4.60;;;;;;;8.86;78.70;101601.56;5028278;28;20075;-21
2022/02/09 15:12:58;;;;;;;7.75;4.60;;;;;;;8.85;78.75;101605.97;5028293;28;20029;-21
2022/02/09 15:18:29;;;;;;;5.25;4.55;;;;;;;8.84;78.54;101596.28;5029476;28;20032;-21
2022/02/09 15:23:21;;;;;;;4.90;4.32;;;;;;;8.82;78.72;101590.16;5029452;28;20029;-21
2022/02/09 15:25:47;;;;;;;4.95;4.45;;;;;;;8.83;78.84;101597.16;5027375;28;20405;-21
2022/02/09 15:28:13;;;;;;;5.22;4.20;;;;;;;8.84;78.69;101601.56;5027183;28;20021;-21
2022/02/09 15:31:06;;;;;;;4.45;4.03;;;;;;;8.81;78.65;101596.25;5025877;28;20057;-25
2022/02/09 15:33:40;;;;;;;6.55;4.65;;;;;;;8.82;79.08;101603.28;5027595;28;20478;-21
2022/02/09 15:36:09;;;;;;;6.53;4.53;;;;;;;8.82;79.08;101600.66;5027911;28;20485;-23
2022/02/09 15:38:45;;;;;;;5.32;4.45;;;;;;;8.78;78.71;101603.22;5030503;28;20028;-21
2022/02/09 15:41:30;;;;;;;5.88;4.88;;;;;;;8.82;78.51;101602.41;5029332;28;20044;-21
2022/02/09 16:09:15;;;;;;;8.20;4.60;;;;;;;8.73;78.77;101622.47;5028832;28;20424;-21
2022/02/09 16:22:34;;;;;;;8.27;4.70;;;;;;;8.69;78.83;101620.66;5026867;28;20048;-21
2022/02/09 16:46:22;;;;;;;5.15;4.40;;;;;;;8.57;78.93;101612.59;5027393;28;20063;-22
2022/02/09 16:49:03;;;;;;;6.30;4.32;;;;;;;8.58;78.76;101619.63;5026974;28;20432;-21
2022/02/09 16:51:33;;;;;;;5.53;4.95;;;;;;;8.56;79.00;101614.34;5027709;28;20025;-22
2022/02/09 16:56:46;;;;;;;4.53;4.07;;;;;;;8.55;78.99;101616.94;5026089;28;20037;-21
2022/02/09 17:21:03;;;;;;;4.70;4.22;;;;;;;8.47;78.86;101622.03;5024346;28;20087;-21
2022/02/09 17:23:30;;;;;;;7.70;5.30;;;;;;;8.44;79.02;101620.25;5024708;28;20026;-21
2022/02/09 17:25:56;;;;;;;10.65;5.05;;;;;;;8.45;78.96;101621.16;5023042;28;20389;-22
2022/02/09 17:28:21;;;;;;;6.75;4.28;;;;;;;8.44;79.11;101628.13;5025230;28;20656;-22
2022/02/09 17:31:02;;;;;;;6.32;5.38;;;;;;;8.41;79.08;101625.47;5026707;28;20053;-21
2022/02/09 17:33:46;;;;;;;5.18;4.10;;;;;;;8.44;79.17;101629.91;5025956;28;20037;-21
2022/02/09 17:36:18;;;;;;;5.65;5.00;;;;;;;8.41;79.09;101620.19;5027410;28;20391;-23
2022/02/09 17:39:07;;;;;;;4.90;4.20;;;;;;;8.41;79.14;101628.09;5026598;28;20025;-21
2022/02/09 17:58:06;;;;;;;4.82;4.25;;;;;;;8.34;79.49;101635.00;5023168;28;20044;-21
2022/02/09 18:00:32;;;;;;;4.78;4.28;;;;;;;8.33;79.42;101633.25;5025277;28;20117;-21
2022/02/09 18:02:57;;;;;;;4.20;3.80;;;;;;;8.33;79.51;101630.63;5027029;28;20380;-21
2022/02/09 18:05:41;;;;;;;4.70;4.28;;;;;;;8.32;79.57;101631.47;5026086;28;20037;-22
2022/02/09 18:08:16;;;;;;;5.32;4.32;;;;;;;8.30;79.50;101625.31;5027237;28;20044;-21
2022/02/09 18:10:51;;;;;;;4.88;4.38;;;;;;;8.32;79.50;101630.59;5025811;28;20473;-21
2022/02/09 18:13:59;;;;;;;4.90;4.25;;;;;;;8.28;79.40;101632.28;5026292;28;20033;-21
2022/02/09 18:29:48;;;;;;;5.53;5.03;;;;;;;8.22;79.49;101619.03;5015653;28;20037;-26
2022/02/09 19:03:54;;;;;;;8.77;5.50;;;;;;;8.09;80.14;101591.69;5027819;28;20036;-23
2022/02/09 19:06:27;;;;;;;8.18;6.38;;;;;;;8.09;80.10;101596.94;5028172;28;20029;-23
2022/02/09 19:18:16;;;;;;;;;;;;;;;8.05;80.34;101616.16;5006219;28;20049;-24
2022/02/09 19:20:25;;;;;;;5.88;5.28;;;;;;;8.01;80.31;101617.84;5021587;28;19917;-24
2022/02/09 19:31:12;;;;;;;5.78;5.15;;;;;;;7.97;80.52;101602.88;5027039;28;20449;-23
2022/02/09 19:49:14;;;;;;;5.38;4.88;;;;;;;7.90;80.43;101601.03;5027084;28;20569;-23
2022/02/09 19:56:36;;;;;;;7.53;5.15;;;;;;;7.88;80.28;101602.72;5027187;28;20068;-23
2022/02/09 19:59:13;;;;;;;4.97;4.47;;;;;;;7.89;80.35;101601.84;5027019;28;20404;-23
2022/02/09 20:01:39;;;;;;;6.25;4.70;;;;;;;7.88;80.20;101607.97;5025389;28;20021;-23
2022/02/09 20:04:06;;;;;;;6.25;5.30;;;;;;;7.85;80.80;101606.19;5025087;28;20469;-24
2022/02/09 20:06:32;;;;;;;6.15;5.55;;;;;;;7.84;80.38;101607.06;5024863;28;20026;-24
2022/02/09 20:08:57;;;;;;;6.65;5.75;;;;;;;7.83;80.33;101600.91;5028372;28;20037;-23
2022/02/09 20:11:23;;;;;;;5.93;5.32;;;;;;;7.84;80.72;101604.44;5023379;28;20041;-26
2022/02/09 20:13:52;;;;;;;6.65;4.90;;;;;;;7.80;80.61;101600.84;5026233;28;20040;-23
2022/02/09 20:16:20;;;;;;;5.88;5.28;;;;;;;7.81;80.53;101597.34;5026439;28;20026;-23
2022/02/09 20:18:46;;;;;;;7.75;5.38;;;;;;;7.82;80.38;101593.88;5020161;28;20025;-23
2022/02/09 20:21:11;;;;;;;5.32;4.82;;;;;;;7.78;80.69;101592.06;5020617;28;20035;-24
2022/02/09 20:23:37;;;;;;;5.90;4.97;;;;;;;7.78;80.36;101594.69;5026299;28;20029;-23
2022/02/09 20:26:07;;;;;;;7.53;5.20;;;;;;;7.77;80.55;101589.41;5026869;28;20053;-23
2022/02/09 20:28:34;;;;;;;9.95;6.00;;;;;;;7.77;80.46;101594.66;5025726;28;20029;-23
2022/02/09 20:31:05;;;;;;;6.07;5.47;;;;;;;7.72;80.48;101581.44;5025757;28;20041;-24
2022/02/09 20:33:42;;;;;;;6.55;5.82;;;;;;;7.74;80.52;101590.22;5025903;28;20090;-24
2022/02/09 20:36:11;;;;;;;6.53;5.82;;;;;;;7.74;80.39;101584.97;5019163;28;20033;-23
2022/02/09 20:38:38;;;;;;;5.88;5.28;;;;;;;7.74;80.44;101584.09;5026151;28;20033;-24
2022/02/09 20:41:07;;;;;;;6.85;5.88;;;;;;;7.72;80.45;101586.69;5024353;28;20500;-23
2022/02/09 20:43:39;;;;;;;5.90;5.30;;;;;;;7.71;80.37;101584.94;5025953;28;20481;-23
2022/02/09 20:46:07;;;;;;;8.38;5.72;;;;;;;7.71;80.38;101587.56;5027283;28;20492;-23
2022/02/09 20:48:33;;;;;;;7.35;5.60;;;;;;;7.71;80.06;101582.31;5023900;28;20025;-24
2022/02/09 20:51:03;;;;;;;6.88;5.85;;;;;;;7.70;80.37;101584.03;5021628;28;20056;-25
2022/02/09 20:53:29;;;;;;;6.40;5.70;;;;;;;7.69;79.96;101578.75;5022989;28;20029;-23
2022/02/09 20:55:56;;;;;;;5.78;4.97;;;;;;;7.69;80.05;101584.03;5023553;28;20051;-24
2022/02/09 20:58:23;;;;;;;5.63;5.03;;;;;;;7.68;79.89;101577.00;5023018;28;20048;-23
2022/02/09 21:01:02;;;;;;;6.32;5.72;;;;;;;7.68;80.05;101571.75;5024136;28;20431;-23
2022/02/09 21:14:33;;;;;;;7.22;5.72;;;;;;;7.65;79.84;101574.31;5025357;28;20021;-23
2022/02/09 21:53:47;;;;;;;6.35;5.07;;;;;;;7.56;79.60;101544.44;5022711;28;20467;-23
2022/02/09 21:59:02;;;;;;;;;;;;;;;7.57;79.54;101540.94;5028492;28;20059;-23
2022/02/09 22:20:38;;;;;;;7.20;5.70;;;;;;;7.54;79.69;101522.50;5017778;28;20116;-24
2022/02/09 22:28:36;;;;;;;6.32;5.00;;;;;;;7.52;79.61;101526.84;5029060;28;20051;-23
2022/02/09 22:31:34;;;;;;;6.45;5.20;;;;;;;7.52;79.95;101521.59;5029341;28;20469;-23
2022/02/09 22:55:15;;;;;;;6.65;5.45;;;;;;;7.50;79.92;101528.56;5029479;28;20357;-23
2022/02/09 22:57:51;;;;;;;9.10;5.82;;;;;;;7.48;79.84;101517.16;5030432;28;20083;-23
2022/02/09 23:00:38;;;;;;;6.80;5.20;;;;;;;7.49;79.78;101520.66;5027381;28;20033;-24
2022/02/09 23:03:05;;;;;;;5.80;5.20;;;;;;;7.45;79.66;101514.47;5025466;28;20068;-23
2022/02/09 23:13:45;;;;;;;;;;;;;;;7.47;80.16;101491.75;5030690;28;20108;-23
2022/02/09 23:20:01;;;;;;;6.78;5.07;;;;;;;7.46;80.55;101491.75;5030468;28;20025;-23
